createdAt,value
2023-04-16T00:01:01.410Z,3.40
2023-04-16T00:03:28.105Z,5.67
2023-04-16T00:05:55.978Z,4.90
2023-04-16T00:08:24.629Z,4.73
2023-04-16T00:10:52.850Z,5.40
2023-04-16T00:13:19.679Z,4.60
2023-04-16T00:15:46.043Z,3.90
2023-04-16T00:18:12.475Z,4.40
2023-04-16T00:20:39.207Z,4.53
2023-04-16T00:23:05.668Z,5.10
2023-04-16T00:25:32.161Z,1.83
2023-04-16T00:27:58.627Z,4.63
2023-04-16T00:30:25.221Z,4.73
2023-04-16T00:32:51.722Z,5.20
2023-04-16T00:35:18.265Z,3.77
2023-04-16T00:37:44.674Z,5.70
2023-04-16T00:40:11.440Z,4.47
2023-04-16T00:42:38.173Z,5.27
2023-04-16T00:45:05.592Z,4.57
2023-04-16T00:47:32.207Z,4.63
2023-04-16T00:49:58.725Z,5.17
2023-04-16T00:52:26.517Z,4.23
2023-04-16T00:54:54.135Z,4.17
2023-04-16T00:57:23.754Z,5.50
2023-04-16T00:59:50.530Z,4.83
2023-04-16T01:02:17.511Z,4.90
2023-04-16T01:04:44.106Z,4.20
2023-04-16T01:07:10.587Z,3.43
2023-04-16T01:09:36.957Z,2.13
2023-04-16T01:12:03.468Z,4.53
2023-04-16T01:14:31.614Z,4.03
2023-04-16T01:16:58.004Z,3.37
2023-04-16T01:19:24.438Z,3.50
2023-04-16T01:21:51.043Z,3.43
2023-04-16T01:24:17.519Z,3.60
2023-04-16T01:26:43.961Z,3.83
2023-04-16T01:29:10.438Z,3.20
2023-04-16T01:31:37.248Z,3.07
2023-04-16T01:34:03.788Z,4.33
2023-04-16T01:36:30.398Z,3.70
2023-04-16T01:38:56.941Z,4.07
2023-04-16T01:41:23.404Z,4.80
2023-04-16T01:43:49.767Z,4.20
2023-04-16T01:46:30.676Z,3.40
2023-04-16T01:48:58.260Z,3.03
2023-04-16T01:51:24.838Z,4.17
2023-04-16T01:53:51.424Z,3.00
2023-04-16T01:56:17.864Z,3.50
2023-04-16T01:58:46.043Z,2.57
2023-04-16T02:01:13.411Z,4.07
2023-04-16T02:03:40.722Z,3.33
2023-04-16T02:06:07.268Z,2.87
2023-04-16T02:08:33.732Z,4.00
2023-04-16T02:11:00.982Z,3.60
2023-04-16T02:13:27.462Z,3.33
2023-04-16T02:15:54.210Z,4.23
2023-04-16T02:18:20.631Z,3.33
2023-04-16T02:20:47.357Z,3.53
2023-04-16T02:23:15.089Z,4.30
2023-04-16T02:25:43.347Z,3.40
2023-04-16T02:28:11.319Z,3.63
2023-04-16T02:30:38.548Z,3.00
2023-04-16T02:33:07.296Z,3.30
2023-04-16T02:35:37.755Z,3.60
2023-04-16T02:38:05.026Z,3.20
2023-04-16T02:40:31.890Z,3.50
2023-04-16T02:42:58.397Z,4.50
2023-04-16T02:45:25.280Z,3.80
2023-04-16T02:47:51.884Z,2.60
2023-04-16T02:50:18.452Z,3.60
2023-04-16T02:52:45.000Z,3.33
2023-04-16T02:55:11.651Z,3.83
2023-04-16T02:57:38.053Z,3.73
2023-04-16T03:00:05.106Z,2.87
2023-04-16T03:02:31.835Z,4.17
2023-04-16T03:04:58.588Z,4.70
2023-04-16T03:07:25.188Z,4.67
2023-04-16T03:09:51.746Z,5.10
2023-04-16T03:12:18.171Z,4.30
2023-04-16T03:14:44.544Z,3.73
2023-04-16T03:17:11.546Z,3.93
2023-04-16T03:19:37.993Z,5.10
2023-04-16T03:22:04.916Z,2.63
2023-04-16T03:24:32.193Z,4.60
2023-04-16T03:26:58.881Z,3.70
2023-04-16T03:29:26.728Z,4.33
2023-04-16T03:31:53.237Z,3.73
2023-04-16T03:34:19.624Z,3.00
2023-04-16T03:36:46.327Z,4.53
2023-04-16T03:39:12.746Z,3.03
2023-04-16T03:41:39.172Z,3.83
2023-04-16T03:44:05.765Z,3.43
2023-04-16T03:46:32.335Z,3.73
2023-04-16T03:48:58.778Z,3.40
2023-04-16T03:51:26.465Z,3.87
2023-04-16T03:53:53.112Z,3.10
2023-04-16T03:56:19.485Z,4.13
2023-04-16T03:58:45.874Z,4.33
2023-04-16T04:01:12.200Z,3.00
2023-04-16T04:03:38.715Z,4.40
2023-04-16T04:06:08.890Z,4.23
2023-04-16T04:08:35.622Z,3.70
2023-04-16T04:11:02.048Z,4.83
2023-04-16T04:13:28.611Z,4.50
2023-04-16T04:15:55.028Z,4.23
2023-04-16T04:18:21.460Z,5.03
2023-04-16T04:20:47.823Z,5.00
2023-04-16T04:23:14.214Z,3.77
2023-04-16T04:25:40.706Z,4.90
2023-04-16T04:28:07.125Z,3.53
2023-04-16T04:30:35.651Z,4.70
2023-04-16T04:33:02.245Z,4.30
2023-04-16T04:35:29.068Z,4.60
2023-04-16T04:37:55.687Z,3.53
2023-04-16T04:40:22.356Z,4.60
2023-04-16T04:42:48.904Z,3.90
2023-04-16T04:45:16.053Z,3.80
2023-04-16T04:47:42.650Z,5.30
2023-04-16T04:50:09.611Z,3.77
2023-04-16T04:52:36.277Z,4.77
2023-04-16T04:55:02.728Z,4.43
2023-04-16T04:57:29.137Z,5.60
2023-04-16T04:59:55.525Z,4.83
2023-04-16T05:02:22.022Z,5.33
2023-04-16T05:04:48.605Z,4.93
2023-04-16T05:07:16.287Z,4.63
2023-04-16T05:09:42.695Z,4.47
2023-04-16T05:12:09.135Z,4.30
2023-04-16T05:14:36.320Z,4.77
2023-04-16T05:17:02.954Z,4.57
2023-04-16T05:19:29.718Z,4.57
2023-04-16T05:21:56.256Z,5.57
2023-04-16T05:24:22.822Z,6.13
2023-04-16T05:26:49.214Z,6.33
2023-04-16T05:29:15.944Z,5.50
2023-04-16T05:31:42.548Z,4.90
2023-04-16T05:34:08.899Z,6.97
2023-04-16T05:36:35.293Z,6.47
2023-04-16T05:39:01.627Z,7.10
2023-04-16T05:41:28.084Z,6.73
2023-04-16T05:43:54.473Z,7.07
2023-04-16T05:46:20.956Z,5.50
2023-04-16T05:48:47.342Z,6.10
2023-04-16T05:51:13.714Z,6.83
2023-04-16T05:53:40.931Z,6.83
2023-04-16T05:56:08.045Z,6.43
2023-04-16T05:58:34.428Z,6.80
2023-04-16T06:01:01.379Z,8.10
2023-04-16T06:03:28.042Z,7.93
2023-04-16T06:05:54.653Z,5.40
2023-04-16T06:08:21.125Z,8.50
2023-04-16T06:10:47.750Z,5.87
2023-04-16T06:13:14.407Z,7.70
2023-04-16T06:15:40.939Z,9.33
2023-04-16T06:18:07.397Z,8.03
2023-04-16T06:20:33.945Z,10.00
2023-04-16T06:23:00.656Z,8.67
2023-04-16T06:25:27.073Z,9.30
2023-04-16T06:27:53.514Z,7.53
2023-04-16T06:30:20.628Z,9.23
2023-04-16T06:32:47.863Z,7.60
2023-04-16T06:35:14.528Z,9.63
2023-04-16T06:37:41.287Z,8.10
2023-04-16T06:40:08.268Z,9.10
2023-04-16T06:42:34.745Z,8.57
2023-04-16T06:45:01.343Z,9.63
2023-04-16T06:47:27.768Z,9.33
2023-04-16T06:49:54.318Z,9.97
2023-04-16T06:52:20.822Z,9.13
2023-04-16T06:54:48.326Z,9.37
2023-04-16T06:57:14.798Z,7.13
2023-04-16T06:59:41.205Z,7.70
2023-04-16T07:02:10.528Z,6.40
2023-04-16T07:04:37.279Z,9.17
2023-04-16T07:07:03.738Z,4.80
2023-04-16T07:09:30.182Z,5.93
2023-04-16T07:11:56.734Z,8.53
2023-04-16T07:14:23.169Z,10.27
2023-04-16T07:16:49.594Z,6.37
2023-04-16T07:19:16.257Z,9.37
2023-04-16T07:21:43.851Z,8.80
2023-04-16T07:24:11.639Z,7.27
2023-04-16T07:26:38.188Z,8.57
2023-04-16T07:29:04.623Z,9.30
2023-04-16T07:31:31.502Z,7.87
2023-04-16T07:33:58.579Z,9.00
2023-04-16T07:36:25.141Z,5.80
2023-04-16T07:38:51.522Z,9.07
2023-04-16T07:41:18.035Z,7.87
2023-04-16T07:43:44.460Z,2.87
2023-04-16T07:46:11.027Z,7.23
2023-04-16T07:48:37.437Z,5.60
2023-04-16T07:51:03.883Z,9.13
2023-04-16T07:53:30.467Z,5.70
2023-04-16T07:55:57.001Z,9.10
2023-04-16T07:58:24.698Z,8.73
2023-04-16T08:00:51.776Z,8.27
2023-04-16T08:03:18.503Z,8.63
2023-04-16T08:05:45.246Z,8.40
2023-04-16T08:08:11.618Z,4.97
2023-04-16T08:10:38.911Z,7.50
2023-04-16T08:13:05.587Z,8.63
2023-04-16T08:15:32.317Z,9.70
2023-04-16T08:17:59.457Z,8.17
2023-04-16T08:20:26.193Z,8.40
2023-04-16T08:22:53.994Z,8.67
2023-04-16T08:25:21.193Z,8.17
2023-04-16T08:27:47.757Z,7.67
2023-04-16T08:30:16.633Z,7.93
2023-04-16T08:32:43.514Z,7.67
2023-04-16T08:35:10.311Z,9.07
2023-04-16T08:37:36.732Z,7.90
2023-04-16T08:40:03.910Z,7.43
2023-04-16T08:42:40.582Z,8.07
2023-04-16T08:45:09.266Z,6.90
2023-04-16T08:47:37.239Z,7.67
2023-04-16T08:50:05.285Z,6.17
2023-04-16T08:52:32.706Z,6.27
2023-04-16T08:55:11.915Z,6.03
2023-04-16T08:57:53.509Z,6.60
2023-04-16T09:00:20.825Z,7.33
2023-04-16T09:02:47.479Z,6.30
2023-04-16T09:05:20.676Z,6.30
2023-04-16T09:07:48.358Z,4.07
2023-04-16T09:10:15.598Z,7.10
2023-04-16T09:12:43.162Z,7.13
2023-04-16T09:15:13.903Z,4.20
2023-04-16T09:17:42.212Z,6.80
2023-04-16T09:20:10.988Z,6.67
2023-04-16T09:22:37.901Z,7.03
2023-04-16T09:25:04.674Z,6.17
2023-04-16T09:27:31.863Z,7.23
2023-04-16T09:29:58.517Z,7.03
2023-04-16T09:32:29.978Z,6.97
2023-04-16T09:34:57.649Z,5.33
2023-04-16T09:37:25.697Z,6.80
2023-04-16T09:40:03.710Z,7.50
2023-04-16T09:42:36.343Z,2.50
2023-04-16T09:45:05.561Z,7.70
2023-04-16T09:47:46.175Z,5.03
2023-04-16T09:50:18.585Z,7.70
2023-04-16T09:52:48.633Z,5.97
2023-04-16T09:55:15.373Z,7.10
2023-04-16T09:57:41.779Z,6.80
2023-04-16T10:00:11.720Z,6.70
2023-04-16T10:02:41.768Z,6.90
2023-04-16T10:05:10.714Z,6.60
2023-04-16T10:07:37.661Z,8.63
2023-04-16T10:10:05.113Z,7.80
2023-04-16T10:12:32.921Z,7.50
2023-04-16T10:14:59.751Z,6.33
2023-04-16T10:17:29.941Z,8.57
2023-04-16T10:19:57.937Z,7.27
2023-04-16T10:22:24.465Z,8.57
2023-04-16T10:24:51.707Z,8.03
2023-04-16T10:27:19.831Z,7.90
2023-04-16T10:29:46.776Z,7.37
2023-04-16T10:32:18.787Z,3.43
2023-04-16T10:34:45.984Z,6.93
2023-04-16T10:37:12.702Z,8.27
2023-04-16T10:39:39.218Z,8.23
2023-04-16T10:42:12.890Z,7.37
2023-04-16T10:44:45.186Z,9.37
2023-04-16T10:47:13.318Z,8.10
2023-04-16T10:49:41.062Z,7.13
2023-04-16T10:52:11.587Z,6.57
2023-04-16T10:54:39.391Z,7.20
2023-04-16T10:57:12.232Z,7.03
2023-04-16T10:59:42.299Z,7.03
2023-04-16T11:02:14.794Z,5.80
2023-04-16T11:04:46.150Z,5.60
2023-04-16T11:07:16.472Z,5.90
2023-04-16T11:09:59.863Z,6.57
2023-04-16T11:12:29.831Z,3.23
2023-04-16T11:15:01.770Z,5.33
2023-04-16T11:17:36.495Z,5.17
2023-04-16T11:20:05.075Z,5.13
2023-04-16T11:22:46.023Z,4.83
2023-04-16T11:25:12.711Z,5.37
2023-04-16T11:27:39.589Z,5.53
2023-04-16T11:30:10.951Z,5.13
2023-04-16T11:32:38.617Z,2.80
2023-04-16T11:35:13.827Z,2.77
2023-04-16T11:37:40.446Z,3.50
2023-04-16T11:40:08.266Z,4.53
2023-04-16T11:42:37.370Z,4.40
2023-04-16T11:45:04.898Z,4.17
2023-04-16T11:47:32.896Z,4.53
2023-04-16T11:50:35.593Z,4.40
2023-04-16T11:53:06.358Z,2.90
2023-04-16T11:55:43.216Z,3.90
2023-04-16T11:58:13.560Z,3.00
2023-04-16T12:00:41.644Z,2.87
2023-04-16T12:03:08.244Z,4.10
2023-04-16T12:05:38.636Z,3.93
2023-04-16T12:08:09.988Z,3.43
2023-04-16T12:10:52.363Z,4.30
2023-04-16T12:13:19.640Z,3.57
2023-04-16T12:15:50.903Z,3.60
2023-04-16T12:18:19.226Z,3.10
2023-04-16T12:20:46.639Z,3.40
2023-04-16T12:23:29.851Z,3.50
2023-04-16T12:25:59.634Z,2.57
2023-04-16T12:28:38.267Z,4.23
2023-04-16T12:31:05.898Z,3.60
2023-04-16T12:33:32.494Z,3.47
2023-04-16T12:35:59.104Z,3.57
2023-04-16T12:38:26.852Z,2.57
2023-04-16T12:40:56.855Z,2.63
2023-04-16T12:43:23.704Z,3.10
2023-04-16T12:45:50.100Z,2.53
2023-04-16T12:48:16.573Z,3.00
2023-04-16T12:50:44.318Z,2.83
2023-04-16T12:53:11.743Z,3.57
2023-04-16T12:55:38.292Z,3.03
2023-04-16T12:58:04.725Z,3.13
2023-04-16T13:00:31.231Z,3.37
2023-04-16T13:02:57.992Z,3.27
2023-04-16T13:05:24.715Z,3.73
2023-04-16T13:07:51.153Z,2.63
2023-04-16T13:10:17.758Z,3.57
2023-04-16T13:12:44.217Z,3.00
2023-04-16T13:15:11.444Z,3.40
2023-04-16T13:17:37.961Z,2.70
2023-04-16T13:20:04.916Z,2.67
2023-04-16T13:22:31.488Z,3.00
2023-04-16T13:24:58.060Z,3.17
2023-04-16T13:27:24.461Z,3.47
2023-04-16T13:29:50.877Z,3.17
2023-04-16T13:32:18.907Z,3.90
2023-04-16T13:34:45.602Z,3.70
2023-04-16T13:37:12.053Z,3.57
2023-04-16T13:39:38.659Z,3.20
2023-04-16T13:42:05.359Z,3.50
2023-04-16T13:44:32.580Z,4.20
2023-04-16T13:46:59.267Z,3.33
2023-04-16T13:49:25.848Z,3.37
2023-04-16T13:51:52.532Z,4.07
2023-04-16T13:54:18.962Z,3.57
2023-04-16T13:56:45.962Z,4.47
2023-04-16T13:59:12.687Z,3.50
2023-04-16T14:01:40.215Z,4.07
2023-04-16T14:04:07.375Z,3.70
2023-04-16T14:06:36.759Z,3.80
2023-04-16T14:09:04.185Z,3.23
2023-04-16T14:11:31.461Z,3.50
2023-04-16T14:13:58.280Z,3.47
2023-04-16T14:16:24.793Z,4.67
2023-04-16T14:18:51.965Z,3.80
2023-04-16T14:21:18.655Z,3.63
2023-04-16T14:23:45.572Z,4.23
2023-04-16T14:26:12.152Z,3.50
2023-04-16T14:28:39.862Z,3.83
2023-04-16T14:31:06.498Z,5.17
2023-04-16T14:33:33.106Z,4.40
2023-04-16T14:36:02.073Z,4.40
2023-04-16T14:38:29.958Z,4.73
2023-04-16T14:40:56.633Z,4.60
2023-04-16T14:43:23.079Z,5.37
2023-04-16T14:45:49.588Z,4.90
2023-04-16T14:48:16.019Z,4.53
2023-04-16T14:50:43.943Z,4.27
2023-04-16T14:53:13.522Z,5.53
2023-04-16T14:55:39.956Z,5.77
2023-04-16T14:58:06.373Z,5.97
2023-04-16T15:00:35.494Z,5.40
2023-04-16T15:03:02.109Z,5.40
2023-04-16T15:05:29.961Z,4.97
2023-04-16T15:07:56.691Z,5.07
2023-04-16T15:10:23.174Z,5.93
2023-04-16T15:12:49.646Z,6.30
2023-04-16T15:15:16.273Z,6.37
2023-04-16T15:17:43.536Z,6.30
2023-04-16T15:20:10.549Z,5.47
2023-04-16T15:22:37.226Z,5.93
2023-04-16T15:25:05.010Z,5.87
2023-04-16T15:27:31.450Z,6.00
2023-04-16T15:29:57.849Z,5.47
2023-04-16T15:32:24.934Z,5.90
2023-04-16T15:34:52.198Z,7.00
2023-04-16T15:37:18.676Z,7.07
2023-04-16T15:39:45.199Z,6.70
2023-04-16T15:42:11.862Z,7.23
2023-04-16T15:44:38.321Z,6.77
2023-04-16T15:47:06.258Z,6.13
2023-04-16T15:49:32.726Z,8.73
2023-04-16T15:51:59.228Z,6.03
2023-04-16T15:54:25.737Z,7.50
2023-04-16T15:56:52.210Z,7.10
2023-04-16T15:59:18.703Z,6.33
2023-04-16T16:01:45.263Z,6.47
2023-04-16T16:04:11.975Z,6.73
2023-04-16T16:06:39.512Z,6.40
2023-04-16T16:09:06.944Z,6.57
2023-04-16T16:11:33.724Z,8.93
2023-04-16T16:14:03.477Z,8.03
2023-04-16T16:16:30.040Z,8.67
2023-04-16T16:18:56.534Z,7.63
2023-04-16T16:21:23.000Z,9.40
2023-04-16T16:23:49.862Z,9.53
2023-04-16T16:26:16.456Z,9.67
2023-04-16T16:28:44.614Z,8.67
2023-04-16T16:31:12.253Z,9.07
2023-04-16T16:33:40.471Z,6.50
2023-04-16T16:36:11.453Z,8.47
2023-04-16T16:38:39.967Z,10.53
2023-04-16T16:41:07.154Z,8.23
2023-04-16T16:43:34.873Z,9.67
2023-04-16T16:46:01.317Z,10.23
2023-04-16T16:48:27.754Z,10.67
2023-04-16T16:50:54.781Z,8.97
2023-04-16T16:53:21.112Z,9.47
2023-04-16T16:55:47.481Z,9.07
2023-04-16T16:58:13.881Z,8.93
2023-04-16T17:00:41.474Z,9.47
2023-04-16T17:03:09.275Z,9.70
2023-04-16T17:05:36.124Z,7.87
2023-04-16T17:08:02.626Z,8.30
2023-04-16T17:10:29.113Z,8.20
2023-04-16T17:12:55.941Z,8.73
2023-04-16T17:15:24.017Z,8.23
2023-04-16T17:17:50.846Z,7.50
2023-04-16T17:20:17.458Z,8.53
2023-04-16T17:22:44.104Z,9.53
2023-04-16T17:25:10.856Z,8.93
2023-04-16T17:27:37.710Z,7.77
2023-04-16T17:30:05.722Z,7.67
2023-04-16T17:32:33.018Z,8.90
2023-04-16T17:35:01.035Z,9.80
2023-04-16T17:37:27.574Z,9.30
2023-04-16T17:39:54.029Z,9.10
2023-04-16T17:42:20.586Z,10.03
2023-04-16T17:44:47.603Z,9.83
2023-04-16T17:47:14.174Z,10.23
2023-04-16T17:49:40.664Z,8.73
2023-04-16T17:52:07.205Z,11.40
2023-04-16T17:54:33.846Z,9.17
2023-04-16T17:57:00.583Z,8.83
2023-04-16T17:59:27.361Z,8.30
2023-04-16T18:01:54.665Z,8.17
2023-04-16T18:04:21.579Z,7.67
2023-04-16T18:06:48.446Z,8.97
2023-04-16T18:09:15.418Z,9.03
2023-04-16T18:11:41.885Z,8.40
2023-04-16T18:14:09.860Z,8.03
2023-04-16T18:16:36.584Z,8.60
2023-04-16T18:19:03.140Z,9.37
2023-04-16T18:21:30.324Z,8.20
2023-04-16T18:23:57.128Z,8.57
2023-04-16T18:26:23.560Z,9.10
2023-04-16T18:28:50.355Z,7.77
2023-04-16T18:31:20.659Z,9.10
2023-04-16T18:33:56.494Z,6.57
2023-04-16T18:36:24.548Z,8.50
2023-04-16T18:39:00.848Z,8.80
2023-04-16T18:41:28.638Z,8.87
2023-04-16T18:43:55.031Z,9.20
2023-04-16T18:46:21.578Z,7.50
2023-04-16T18:48:48.031Z,8.20
2023-04-16T18:51:16.059Z,9.47
2023-04-16T18:53:44.356Z,9.33
2023-04-16T18:56:11.575Z,9.57
2023-04-16T18:58:38.152Z,9.53
2023-04-16T19:01:06.167Z,9.27
2023-04-16T19:03:33.422Z,8.90
2023-04-16T19:06:00.044Z,7.10
2023-04-16T19:08:27.080Z,6.93
2023-04-16T19:10:53.531Z,7.23
2023-04-16T19:13:20.004Z,7.43
2023-04-16T19:15:46.484Z,8.53
2023-04-16T19:18:12.956Z,8.43
2023-04-16T19:20:39.555Z,9.73
2023-04-16T19:23:08.269Z,7.90
2023-04-16T19:25:39.420Z,8.50
2023-04-16T19:28:05.865Z,7.77
2023-04-16T19:30:32.505Z,6.40
2023-04-16T19:32:59.035Z,8.77
2023-04-16T19:35:25.836Z,7.10
2023-04-16T19:37:52.352Z,7.87
2023-04-16T19:40:19.117Z,8.33
2023-04-16T19:42:45.568Z,7.37
2023-04-16T19:45:12.300Z,8.83
2023-04-16T19:47:38.891Z,7.83
2023-04-16T19:50:05.986Z,6.93
2023-04-16T19:52:37.310Z,9.10
2023-04-16T19:55:04.335Z,8.63
2023-04-16T19:57:30.789Z,8.33
2023-04-16T19:59:57.329Z,7.33
2023-04-16T20:02:23.759Z,8.73
2023-04-16T20:04:50.766Z,8.97
2023-04-16T20:07:17.505Z,7.97
2023-04-16T20:09:43.932Z,8.23
2023-04-16T20:12:10.435Z,9.00
2023-04-16T20:14:36.804Z,8.03
2023-04-16T20:17:03.469Z,7.33
2023-04-16T20:19:33.291Z,7.20
2023-04-16T20:21:59.751Z,7.13
2023-04-16T20:24:26.414Z,6.93
2023-04-16T20:26:52.815Z,8.60
2023-04-16T20:29:19.416Z,7.37
2023-04-16T20:31:46.162Z,8.90
2023-04-16T20:34:12.787Z,6.80
2023-04-16T20:36:39.356Z,6.63
2023-04-16T20:39:07.852Z,6.80
2023-04-16T20:41:34.348Z,6.67
2023-04-16T20:44:05.328Z,6.50
2023-04-16T20:46:36.161Z,6.40
2023-04-16T20:49:02.627Z,6.83
2023-04-16T20:51:29.106Z,6.70
2023-04-16T20:53:55.486Z,6.13
2023-04-16T20:56:21.964Z,6.93
2023-04-16T20:58:48.582Z,7.87
2023-04-16T21:01:15.060Z,6.30
2023-04-16T21:03:41.658Z,6.23
2023-04-16T21:06:08.246Z,6.80
2023-04-16T21:08:35.168Z,6.73
2023-04-16T21:11:01.707Z,6.53
2023-04-16T21:13:28.261Z,7.17
2023-04-16T21:15:54.746Z,5.30
2023-04-16T21:18:21.214Z,6.70
2023-04-16T21:20:47.755Z,6.37
2023-04-16T21:23:14.274Z,6.37
2023-04-16T21:25:41.162Z,6.97
2023-04-16T21:28:08.084Z,6.67
2023-04-16T21:30:34.702Z,7.10
2023-04-16T21:33:01.264Z,7.53
2023-04-16T21:35:28.196Z,6.47
2023-04-16T21:37:54.560Z,7.43
2023-04-16T21:40:21.080Z,7.00
2023-04-16T21:42:47.552Z,5.70
2023-04-16T21:45:14.486Z,7.30
2023-04-16T21:47:41.099Z,7.20
2023-04-16T21:50:08.266Z,6.97
2023-04-16T21:52:40.130Z,6.97
2023-04-16T21:55:09.046Z,5.67
2023-04-16T21:57:35.442Z,5.57
2023-04-16T22:00:02.112Z,7.17
2023-04-16T22:02:28.671Z,6.27
2023-04-16T22:04:55.860Z,6.03
2023-04-16T22:07:22.452Z,6.77
2023-04-16T22:09:49.111Z,6.97
2023-04-16T22:12:15.633Z,6.50
2023-04-16T22:14:49.188Z,7.67
2023-04-16T22:17:27.659Z,6.53
2023-04-16T22:19:54.814Z,5.50
2023-04-16T22:22:22.042Z,7.00
2023-04-16T22:24:48.741Z,6.90
2023-04-16T22:27:15.517Z,6.77
2023-04-16T22:29:41.936Z,5.57
2023-04-16T22:32:08.364Z,6.47
2023-04-16T22:34:35.059Z,7.50
2023-04-16T22:37:03.080Z,6.73
2023-04-16T22:39:31.595Z,7.17
2023-04-16T22:41:58.107Z,7.23
2023-04-16T22:44:24.526Z,6.37
2023-04-16T22:46:51.234Z,6.63
2023-04-16T22:49:17.695Z,7.00
2023-04-16T22:51:44.750Z,7.90
2023-04-16T22:54:14.089Z,7.90
2023-04-16T22:56:40.980Z,7.33
2023-04-16T22:59:08.080Z,8.00
2023-04-16T23:01:34.955Z,7.13
2023-04-16T23:04:01.557Z,6.47
2023-04-16T23:06:27.971Z,8.00
2023-04-16T23:08:54.361Z,6.87
2023-04-16T23:11:20.903Z,6.60
2023-04-16T23:13:47.349Z,6.10
2023-04-16T23:16:13.853Z,5.60
2023-04-16T23:18:40.327Z,6.03
2023-04-16T23:21:06.802Z,6.00
2023-04-16T23:23:33.316Z,6.67
2023-04-16T23:26:00.951Z,6.50
2023-04-16T23:28:27.333Z,6.17
2023-04-16T23:30:53.853Z,6.43
2023-04-16T23:33:20.433Z,6.83
2023-04-16T23:35:47.381Z,6.27
2023-04-16T23:38:13.826Z,6.43
2023-04-16T23:40:40.344Z,7.53
2023-04-16T23:43:06.772Z,5.87
2023-04-16T23:45:33.243Z,6.30
2023-04-16T23:47:59.776Z,6.70
2023-04-16T23:50:26.277Z,6.70
2023-04-16T23:52:52.753Z,6.40
2023-04-16T23:55:19.330Z,7.00
2023-04-16T23:57:46.268Z,6.50
